sensor_id;sensor_type;location;lat;lon;timestamp;P1;durP1;ratioP1;P2;durP2;ratioP2
9142;SDS011;54072;47.410;8.446;2023-07-13T00:01:47;5.20;;;3.77;;
9142;SDS011;54072;47.410;8.446;2023-07-13T00:04:16;5.47;;;4.37;;
9142;SDS011;54072;47.410;8.446;2023-07-13T00:06:44;5.03;;;4.20;;
9142;SDS011;54072;47.410;8.446;2023-07-13T00:09:12;7.23;;;3.97;;
9142;SDS011;54072;47.410;8.446;2023-07-13T00:11:40;5.37;;;4.53;;
9142;SDS011;54072;47.410;8.446;2023-07-13T00:14:07;8.30;;;4.93;;
9142;SDS011;54072;47.410;8.446;2023-07-13T00:16:36;7.23;;;5.90;;
9142;SDS011;54072;47.410;8.446;2023-07-13T00:19:05;12.80;;;8.13;;
9142;SDS011;54072;47.410;8.446;2023-07-13T00:21:33;9.03;;;6.50;;
9142;SDS011;54072;47.410;8.446;2023-07-13T00:24:01;7.97;;;5.27;;
9142;SDS011;54072;47.410;8.446;2023-07-13T00:26:29;6.13;;;5.53;;
9142;SDS011;54072;47.410;8.446;2023-07-13T00:28:58;7.17;;;5.00;;
9142;SDS011;54072;47.410;8.446;2023-07-13T00:31:26;5.47;;;4.90;;
9142;SDS011;54072;47.410;8.446;2023-07-13T00:33:53;6.90;;;5.30;;
9142;SDS011;54072;47.410;8.446;2023-07-13T00:36:22;6.27;;;5.10;;
9142;SDS011;54072;47.410;8.446;2023-07-13T00:38:50;7.97;;;5.07;;
9142;SDS011;54072;47.410;8.446;2023-07-13T00:41:17;5.40;;;4.57;;
9142;SDS011;54072;47.410;8.446;2023-07-13T00:43:45;8.97;;;5.00;;
9142;SDS011;54072;47.410;8.446;2023-07-13T00:46:17;8.07;;;4.73;;
9142;SDS011;54072;47.410;8.446;2023-07-13T00:48:46;4.97;;;4.40;;
9142;SDS011;54072;47.410;8.446;2023-07-13T00:51:15;6.10;;;4.53;;
9142;SDS011;54072;47.410;8.446;2023-07-13T00:53:45;7.63;;;4.70;;
9142;SDS011;54072;47.410;8.446;2023-07-13T00:56:13;6.67;;;4.50;;
9142;SDS011;54072;47.410;8.446;2023-07-13T00:58:41;6.27;;;4.63;;
9142;SDS011;54072;47.410;8.446;2023-07-13T01:01:09;7.30;;;4.70;;
9142;SDS011;54072;47.410;8.446;2023-07-13T01:03:36;5.13;;;4.57;;
9142;SDS011;54072;47.410;8.446;2023-07-13T01:06:04;6.47;;;4.70;;
9142;SDS011;54072;47.410;8.446;2023-07-13T01:08:32;6.50;;;4.50;;
9142;SDS011;54072;47.410;8.446;2023-07-13T01:11:01;7.60;;;4.50;;
9142;SDS011;54072;47.410;8.446;2023-07-13T01:13:29;6.87;;;5.00;;
9142;SDS011;54072;47.410;8.446;2023-07-13T01:15:56;4.83;;;4.40;;
9142;SDS011;54072;47.410;8.446;2023-07-13T01:18:26;6.17;;;4.83;;
9142;SDS011;54072;47.410;8.446;2023-07-13T01:20:56;5.20;;;4.70;;
9142;SDS011;54072;47.410;8.446;2023-07-13T01:23:24;5.53;;;4.70;;
9142;SDS011;54072;47.410;8.446;2023-07-13T01:25:52;5.37;;;4.53;;
9142;SDS011;54072;47.410;8.446;2023-07-13T01:28:22;8.23;;;5.10;;
9142;SDS011;54072;47.410;8.446;2023-07-13T01:30:53;8.53;;;4.90;;
9142;SDS011;54072;47.410;8.446;2023-07-13T01:33:21;6.00;;;4.43;;
9142;SDS011;54072;47.410;8.446;2023-07-13T01:35:48;8.00;;;4.43;;
9142;SDS011;54072;47.410;8.446;2023-07-13T01:38:19;5.13;;;4.20;;
9142;SDS011;54072;47.410;8.446;2023-07-13T01:40:46;7.37;;;4.50;;
9142;SDS011;54072;47.410;8.446;2023-07-13T01:43:14;6.40;;;4.80;;
9142;SDS011;54072;47.410;8.446;2023-07-13T01:45:42;5.93;;;4.43;;
9142;SDS011;54072;47.410;8.446;2023-07-13T01:48:11;5.23;;;4.73;;
9142;SDS011;54072;47.410;8.446;2023-07-13T01:50:38;6.20;;;4.60;;
9142;SDS011;54072;47.410;8.446;2023-07-13T01:53:06;6.23;;;4.50;;
9142;SDS011;54072;47.410;8.446;2023-07-13T01:55:35;7.30;;;4.63;;
9142;SDS011;54072;47.410;8.446;2023-07-13T01:58:03;5.27;;;4.53;;
9142;SDS011;54072;47.410;8.446;2023-07-13T02:00:31;7.63;;;5.07;;
9142;SDS011;54072;47.410;8.446;2023-07-13T02:02:59;7.80;;;5.57;;
9142;SDS011;54072;47.410;8.446;2023-07-13T02:05:26;6.60;;;4.63;;
9142;SDS011;54072;47.410;8.446;2023-07-13T02:07:54;11.87;;;4.93;;
9142;SDS011;54072;47.410;8.446;2023-07-13T02:10:21;5.40;;;4.60;;
9142;SDS011;54072;47.410;8.446;2023-07-13T02:12:50;8.67;;;4.80;;
9142;SDS011;54072;47.410;8.446;2023-07-13T02:15:18;6.63;;;4.73;;
9142;SDS011;54072;47.410;8.446;2023-07-13T02:17:46;9.50;;;5.10;;
9142;SDS011;54072;47.410;8.446;2023-07-13T02:20:13;5.93;;;4.70;;
9142;SDS011;54072;47.410;8.446;2023-07-13T02:22:41;8.57;;;5.00;;
9142;SDS011;54072;47.410;8.446;2023-07-13T02:25:08;6.80;;;5.20;;
9142;SDS011;54072;47.410;8.446;2023-07-13T02:27:36;9.00;;;5.13;;
9142;SDS011;54072;47.410;8.446;2023-07-13T02:30:05;7.63;;;5.50;;
9142;SDS011;54072;47.410;8.446;2023-07-13T02:32:33;5.80;;;4.90;;
9142;SDS011;54072;47.410;8.446;2023-07-13T02:35:01;8.37;;;5.20;;
9142;SDS011;54072;47.410;8.446;2023-07-13T02:37:29;6.53;;;4.93;;
9142;SDS011;54072;47.410;8.446;2023-07-13T02:39:57;6.83;;;4.83;;
9142;SDS011;54072;47.410;8.446;2023-07-13T02:42:24;8.13;;;5.03;;
9142;SDS011;54072;47.410;8.446;2023-07-13T02:44:52;7.03;;;4.77;;
9142;SDS011;54072;47.410;8.446;2023-07-13T02:47:21;6.73;;;5.13;;
9142;SDS011;54072;47.410;8.446;2023-07-13T02:49:49;8.47;;;4.70;;
9142;SDS011;54072;47.410;8.446;2023-07-13T02:52:16;6.87;;;4.70;;
9142;SDS011;54072;47.410;8.446;2023-07-13T02:54:44;5.07;;;4.07;;
9142;SDS011;54072;47.410;8.446;2023-07-13T02:57:12;5.37;;;3.93;;
9142;SDS011;54072;47.410;8.446;2023-07-13T02:59:39;6.23;;;3.70;;
9142;SDS011;54072;47.410;8.446;2023-07-13T03:02:07;5.60;;;3.77;;
9142;SDS011;54072;47.410;8.446;2023-07-13T03:04:36;7.57;;;3.90;;
9142;SDS011;54072;47.410;8.446;2023-07-13T03:07:04;8.87;;;4.90;;
9142;SDS011;54072;47.410;8.446;2023-07-13T03:09:32;6.23;;;3.83;;
9142;SDS011;54072;47.410;8.446;2023-07-13T03:12:00;5.30;;;3.90;;
9142;SDS011;54072;47.410;8.446;2023-07-13T03:14:28;6.10;;;4.00;;
9142;SDS011;54072;47.410;8.446;2023-07-13T03:16:56;7.43;;;4.43;;
9142;SDS011;54072;47.410;8.446;2023-07-13T03:19:24;4.87;;;3.50;;
9142;SDS011;54072;47.410;8.446;2023-07-13T03:21:53;4.37;;;3.80;;
9142;SDS011;54072;47.410;8.446;2023-07-13T03:24:20;5.83;;;3.80;;
9142;SDS011;54072;47.410;8.446;2023-07-13T03:26:49;5.07;;;3.80;;
9142;SDS011;54072;47.410;8.446;2023-07-13T03:29:17;5.60;;;3.50;;
9142;SDS011;54072;47.410;8.446;2023-07-13T03:31:44;3.97;;;3.57;;
9142;SDS011;54072;47.410;8.446;2023-07-13T03:34:12;4.00;;;3.60;;
9142;SDS011;54072;47.410;8.446;2023-07-13T03:36:39;6.80;;;4.00;;
9142;SDS011;54072;47.410;8.446;2023-07-13T03:39:09;5.63;;;3.60;;
9142;SDS011;54072;47.410;8.446;2023-07-13T03:41:36;5.50;;;3.53;;
9142;SDS011;54072;47.410;8.446;2023-07-13T03:44:04;5.57;;;3.70;;
9142;SDS011;54072;47.410;8.446;2023-07-13T03:46:32;5.57;;;3.20;;
9142;SDS011;54072;47.410;8.446;2023-07-13T03:49:00;4.30;;;3.53;;
9142;SDS011;54072;47.410;8.446;2023-07-13T03:51:28;4.90;;;3.33;;
9142;SDS011;54072;47.410;8.446;2023-07-13T03:53:55;5.73;;;3.63;;
9142;SDS011;54072;47.410;8.446;2023-07-13T03:56:24;5.67;;;4.07;;
9142;SDS011;54072;47.410;8.446;2023-07-13T03:58:53;5.13;;;4.03;;
9142;SDS011;54072;47.410;8.446;2023-07-13T04:01:21;4.43;;;3.50;;
9142;SDS011;54072;47.410;8.446;2023-07-13T04:03:49;4.23;;;3.73;;
9142;SDS011;54072;47.410;8.446;2023-07-13T04:06:17;6.70;;;4.30;;
9142;SDS011;54072;47.410;8.446;2023-07-13T04:08:47;6.87;;;4.83;;
9142;SDS011;54072;47.410;8.446;2023-07-13T04:11:16;6.37;;;4.00;;
9142;SDS011;54072;47.410;8.446;2023-07-13T04:13:45;6.73;;;4.43;;
9142;SDS011;54072;47.410;8.446;2023-07-13T04:16:13;8.90;;;5.10;;
9142;SDS011;54072;47.410;8.446;2023-07-13T04:18:41;6.67;;;4.23;;
9142;SDS011;54072;47.410;8.446;2023-07-13T04:21:08;6.73;;;4.10;;
9142;SDS011;54072;47.410;8.446;2023-07-13T04:23:36;7.10;;;4.00;;
9142;SDS011;54072;47.410;8.446;2023-07-13T04:26:04;7.87;;;4.10;;
9142;SDS011;54072;47.410;8.446;2023-07-13T04:28:32;7.87;;;4.30;;
9142;SDS011;54072;47.410;8.446;2023-07-13T04:31:01;4.90;;;4.20;;
9142;SDS011;54072;47.410;8.446;2023-07-13T04:33:29;6.03;;;4.20;;
9142;SDS011;54072;47.410;8.446;2023-07-13T04:35:57;6.50;;;3.93;;
9142;SDS011;54072;47.410;8.446;2023-07-13T04:38:26;5.80;;;4.07;;
9142;SDS011;54072;47.410;8.446;2023-07-13T04:40:55;5.20;;;3.87;;
9142;SDS011;54072;47.410;8.446;2023-07-13T04:43:22;5.23;;;4.40;;
9142;SDS011;54072;47.410;8.446;2023-07-13T04:45:51;6.53;;;4.30;;
9142;SDS011;54072;47.410;8.446;2023-07-13T04:48:20;6.93;;;3.70;;
9142;SDS011;54072;47.410;8.446;2023-07-13T04:50:53;11.77;;;4.30;;
9142;SDS011;54072;47.410;8.446;2023-07-13T04:53:21;6.67;;;4.30;;
9142;SDS011;54072;47.410;8.446;2023-07-13T04:55:48;5.97;;;4.50;;
9142;SDS011;54072;47.410;8.446;2023-07-13T04:58:16;5.17;;;4.03;;
9142;SDS011;54072;47.410;8.446;2023-07-13T05:00:43;6.00;;;4.20;;
9142;SDS011;54072;47.410;8.446;2023-07-13T05:03:11;7.20;;;4.33;;
9142;SDS011;54072;47.410;8.446;2023-07-13T05:05:40;5.13;;;3.83;;
9142;SDS011;54072;47.410;8.446;2023-07-13T05:08:07;7.97;;;4.53;;
9142;SDS011;54072;47.410;8.446;2023-07-13T05:10:35;6.67;;;4.60;;
9142;SDS011;54072;47.410;8.446;2023-07-13T05:13:03;5.37;;;4.67;;
9142;SDS011;54072;47.410;8.446;2023-07-13T05:15:30;6.40;;;4.70;;
9142;SDS011;54072;47.410;8.446;2023-07-13T05:17:58;5.07;;;4.53;;
9142;SDS011;54072;47.410;8.446;2023-07-13T05:20:25;8.07;;;4.67;;
9142;SDS011;54072;47.410;8.446;2023-07-13T05:22:54;5.37;;;4.70;;
9142;SDS011;54072;47.410;8.446;2023-07-13T05:25:21;7.83;;;4.60;;
9142;SDS011;54072;47.410;8.446;2023-07-13T05:27:49;6.13;;;4.20;;
9142;SDS011;54072;47.410;8.446;2023-07-13T05:30:17;5.73;;;4.60;;
9142;SDS011;54072;47.410;8.446;2023-07-13T05:32:44;5.27;;;4.63;;
9142;SDS011;54072;47.410;8.446;2023-07-13T05:35:12;5.83;;;4.50;;
9142;SDS011;54072;47.410;8.446;2023-07-13T05:37:40;6.17;;;4.40;;
9142;SDS011;54072;47.410;8.446;2023-07-13T05:40:09;6.00;;;4.30;;
9142;SDS011;54072;47.410;8.446;2023-07-13T05:42:37;7.07;;;4.70;;
9142;SDS011;54072;47.410;8.446;2023-07-13T05:45:05;5.47;;;4.40;;
9142;SDS011;54072;47.410;8.446;2023-07-13T05:47:32;7.33;;;4.70;;
9142;SDS011;54072;47.410;8.446;2023-07-13T05:50:00;8.80;;;5.30;;
9142;SDS011;54072;47.410;8.446;2023-07-13T05:52:29;6.43;;;4.20;;
9142;SDS011;54072;47.410;8.446;2023-07-13T05:54:57;9.40;;;5.13;;
9142;SDS011;54072;47.410;8.446;2023-07-13T05:57:26;5.97;;;4.63;;
9142;SDS011;54072;47.410;8.446;2023-07-13T05:59:53;5.10;;;4.60;;
9142;SDS011;54072;47.410;8.446;2023-07-13T06:02:21;6.63;;;4.50;;
9142;SDS011;54072;47.410;8.446;2023-07-13T06:04:48;7.43;;;4.43;;
9142;SDS011;54072;47.410;8.446;2023-07-13T06:07:18;8.10;;;5.20;;
9142;SDS011;54072;47.410;8.446;2023-07-13T06:09:45;7.60;;;4.90;;
9142;SDS011;54072;47.410;8.446;2023-07-13T06:12:13;5.40;;;4.40;;
9142;SDS011;54072;47.410;8.446;2023-07-13T06:14:42;9.13;;;5.20;;
9142;SDS011;54072;47.410;8.446;2023-07-13T06:17:09;8.40;;;5.20;;
9142;SDS011;54072;47.410;8.446;2023-07-13T06:19:37;6.60;;;5.50;;
9142;SDS011;54072;47.410;8.446;2023-07-13T06:22:04;7.57;;;4.40;;
9142;SDS011;54072;47.410;8.446;2023-07-13T06:24:32;5.63;;;4.57;;
9142;SDS011;54072;47.410;8.446;2023-07-13T06:27:00;5.20;;;4.70;;
9142;SDS011;54072;47.410;8.446;2023-07-13T06:29:27;8.27;;;5.00;;
9142;SDS011;54072;47.410;8.446;2023-07-13T06:31:56;4.93;;;4.10;;
9142;SDS011;54072;47.410;8.446;2023-07-13T06:34:23;5.20;;;4.33;;
9142;SDS011;54072;47.410;8.446;2023-07-13T06:36:51;6.70;;;4.63;;
9142;SDS011;54072;47.410;8.446;2023-07-13T06:39:19;6.47;;;4.50;;
9142;SDS011;54072;47.410;8.446;2023-07-13T06:41:46;5.53;;;4.93;;
9142;SDS011;54072;47.410;8.446;2023-07-13T06:44:14;4.70;;;4.23;;
9142;SDS011;54072;47.410;8.446;2023-07-13T06:46:41;4.57;;;4.17;;
9142;SDS011;54072;47.410;8.446;2023-07-13T06:49:10;6.53;;;4.20;;
9142;SDS011;54072;47.410;8.446;2023-07-13T06:51:38;4.37;;;3.97;;
9142;SDS011;54072;47.410;8.446;2023-07-13T06:54:05;6.53;;;4.27;;
9142;SDS011;54072;47.410;8.446;2023-07-13T06:56:33;5.50;;;4.13;;
9142;SDS011;54072;47.410;8.446;2023-07-13T06:59:01;5.07;;;4.50;;
9142;SDS011;54072;47.410;8.446;2023-07-13T07:01:28;3.83;;;3.33;;
9142;SDS011;54072;47.410;8.446;2023-07-13T07:03:56;4.07;;;3.67;;
9142;SDS011;54072;47.410;8.446;2023-07-13T07:06:25;5.77;;;4.10;;
9142;SDS011;54072;47.410;8.446;2023-07-13T07:08:52;4.23;;;3.70;;
9142;SDS011;54072;47.410;8.446;2023-07-13T07:11:21;7.37;;;4.13;;
9142;SDS011;54072;47.410;8.446;2023-07-13T07:13:49;6.03;;;4.30;;
9142;SDS011;54072;47.410;8.446;2023-07-13T07:16:17;5.53;;;4.23;;
9142;SDS011;54072;47.410;8.446;2023-07-13T07:18:45;5.00;;;4.27;;
9142;SDS011;54072;47.410;8.446;2023-07-13T07:21:13;4.23;;;3.67;;
9142;SDS011;54072;47.410;8.446;2023-07-13T07:23:43;5.13;;;3.60;;
9142;SDS011;54072;47.410;8.446;2023-07-13T07:26:10;4.50;;;3.70;;
9142;SDS011;54072;47.410;8.446;2023-07-13T07:28:38;4.00;;;3.53;;
9142;SDS011;54072;47.410;8.446;2023-07-13T07:31:06;4.43;;;4.03;;
9142;SDS011;54072;47.410;8.446;2023-07-13T07:33:36;4.00;;;3.40;;
9142;SDS011;54072;47.410;8.446;2023-07-13T07:36:04;3.70;;;3.40;;
9142;SDS011;54072;47.410;8.446;2023-07-13T07:38:34;2.80;;;2.60;;
9142;SDS011;54072;47.410;8.446;2023-07-13T07:41:04;3.53;;;2.77;;
9142;SDS011;54072;47.410;8.446;2023-07-13T07:43:35;3.10;;;2.80;;
9142;SDS011;54072;47.410;8.446;2023-07-13T07:46:02;2.80;;;2.60;;
9142;SDS011;54072;47.410;8.446;2023-07-13T07:48:30;3.10;;;2.50;;
9142;SDS011;54072;47.410;8.446;2023-07-13T07:50:57;2.60;;;2.40;;
9142;SDS011;54072;47.410;8.446;2023-07-13T07:53:25;2.27;;;2.00;;
9142;SDS011;54072;47.410;8.446;2023-07-13T07:55:53;2.90;;;2.27;;
9142;SDS011;54072;47.410;8.446;2023-07-13T07:58:27;2.40;;;2.20;;
9142;SDS011;54072;47.410;8.446;2023-07-13T08:01:01;2.83;;;1.93;;
9142;SDS011;54072;47.410;8.446;2023-07-13T08:03:32;3.57;;;2.20;;
9142;SDS011;54072;47.410;8.446;2023-07-13T08:06:02;2.27;;;2.07;;
9142;SDS011;54072;47.410;8.446;2023-07-13T08:08:33;3.17;;;2.27;;
9142;SDS011;54072;47.410;8.446;2023-07-13T08:11:02;2.33;;;1.80;;
9142;SDS011;54072;47.410;8.446;2023-07-13T08:13:51;3.53;;;2.30;;
9142;SDS011;54072;47.410;8.446;2023-07-13T08:16:20;2.30;;;2.10;;
9142;SDS011;54072;47.410;8.446;2023-07-13T08:18:48;3.67;;;2.43;;
9142;SDS011;54072;47.410;8.446;2023-07-13T08:21:15;2.47;;;2.23;;
9142;SDS011;54072;47.410;8.446;2023-07-13T08:23:46;2.73;;;2.27;;
9142;SDS011;54072;47.410;8.446;2023-07-13T08:26:13;2.40;;;2.20;;
9142;SDS011;54072;47.410;8.446;2023-07-13T08:28:41;3.50;;;2.30;;
9142;SDS011;54072;47.410;8.446;2023-07-13T08:31:10;2.97;;;2.10;;
9142;SDS011;54072;47.410;8.446;2023-07-13T08:33:37;2.60;;;2.40;;
9142;SDS011;54072;47.410;8.446;2023-07-13T08:36:07;2.42;;;2.22;;
9142;SDS011;54072;47.410;8.446;2023-07-13T08:38:34;2.40;;;2.20;;
9142;SDS011;54072;47.410;8.446;2023-07-13T08:41:03;2.22;;;2.03;;
9142;SDS011;54072;47.410;8.446;2023-07-13T08:43:36;2.47;;;2.27;;
9142;SDS011;54072;47.410;8.446;2023-07-13T08:46:06;2.40;;;2.10;;
9142;SDS011;54072;47.410;8.446;2023-07-13T08:48:38;2.47;;;2.00;;
9142;SDS011;54072;47.410;8.446;2023-07-13T08:51:10;3.22;;;2.30;;
9142;SDS011;54072;47.410;8.446;2023-07-13T08:53:40;2.92;;;2.72;;
9142;SDS011;54072;47.410;8.446;2023-07-13T08:56:11;2.83;;;2.55;;
9142;SDS011;54072;47.410;8.446;2023-07-13T08:58:42;4.10;;;2.45;;
9142;SDS011;54072;47.410;8.446;2023-07-13T09:01:15;2.25;;;2.03;;
9142;SDS011;54072;47.410;8.446;2023-07-13T09:03:52;3.97;;;2.55;;
9142;SDS011;54072;47.410;8.446;2023-07-13T09:06:26;4.45;;;2.75;;
9142;SDS011;54072;47.410;8.446;2023-07-13T09:08:56;5.00;;;2.42;;
9142;SDS011;54072;47.410;8.446;2023-07-13T09:11:29;4.97;;;2.55;;
9142;SDS011;54072;47.410;8.446;2023-07-13T09:14:01;3.13;;;2.85;;
9142;SDS011;54072;47.410;8.446;2023-07-13T09:16:29;3.20;;;2.20;;
9142;SDS011;54072;47.410;8.446;2023-07-13T09:19:00;4.03;;;2.90;;
9142;SDS011;54072;47.410;8.446;2023-07-13T09:21:31;2.60;;;2.40;;
9142;SDS011;54072;47.410;8.446;2023-07-13T09:23:59;3.72;;;2.85;;
9142;SDS011;54072;47.410;8.446;2023-07-13T09:26:28;4.18;;;2.83;;
9142;SDS011;54072;47.410;8.446;2023-07-13T09:28:57;3.50;;;2.78;;
9142;SDS011;54072;47.410;8.446;2023-07-13T09:31:26;3.42;;;2.60;;
9142;SDS011;54072;47.410;8.446;2023-07-13T09:33:57;6.18;;;2.60;;
9142;SDS011;54072;47.410;8.446;2023-07-13T09:36:28;3.10;;;2.50;;
9142;SDS011;54072;47.410;8.446;2023-07-13T09:38:58;2.90;;;2.70;;
9142;SDS011;54072;47.410;8.446;2023-07-13T09:41:28;2.80;;;2.60;;
9142;SDS011;54072;47.410;8.446;2023-07-13T09:44:00;3.47;;;2.72;;
9142;SDS011;54072;47.410;8.446;2023-07-13T09:46:28;3.22;;;2.88;;
9142;SDS011;54072;47.410;8.446;2023-07-13T09:48:56;2.60;;;2.40;;
9142;SDS011;54072;47.410;8.446;2023-07-13T09:51:23;2.78;;;2.40;;
9142;SDS011;54072;47.410;8.446;2023-07-13T09:53:53;4.75;;;2.40;;
9142;SDS011;54072;47.410;8.446;2023-07-13T09:56:21;3.55;;;2.40;;
9142;SDS011;54072;47.410;8.446;2023-07-13T09:58:48;2.67;;;2.25;;
9142;SDS011;54072;47.410;8.446;2023-07-13T10:01:16;2.47;;;2.30;;
9142;SDS011;54072;47.410;8.446;2023-07-13T10:03:58;3.58;;;2.97;;
9142;SDS011;54072;47.410;8.446;2023-07-13T10:06:25;10.18;;;2.63;;
9142;SDS011;54072;47.410;8.446;2023-07-13T10:08:56;2.90;;;2.70;;
9142;SDS011;54072;47.410;8.446;2023-07-13T10:11:24;2.78;;;2.45;;
9142;SDS011;54072;47.410;8.446;2023-07-13T10:13:56;3.83;;;2.22;;
9142;SDS011;54072;47.410;8.446;2023-07-13T10:16:24;3.55;;;2.50;;
9142;SDS011;54072;47.410;8.446;2023-07-13T10:18:54;2.90;;;2.58;;
9142;SDS011;54072;47.410;8.446;2023-07-13T10:21:23;4.85;;;2.50;;
9142;SDS011;54072;47.410;8.446;2023-07-13T10:24:02;4.10;;;2.20;;
9142;SDS011;54072;47.410;8.446;2023-07-13T10:26:32;4.82;;;2.45;;
9142;SDS011;54072;47.410;8.446;2023-07-13T10:29:02;2.80;;;2.60;;
9142;SDS011;54072;47.410;8.446;2023-07-13T10:31:30;2.80;;;2.60;;
9142;SDS011;54072;47.410;8.446;2023-07-13T10:33:58;3.15;;;2.70;;
9142;SDS011;54072;47.410;8.446;2023-07-13T10:36:31;3.05;;;2.45;;
9142;SDS011;54072;47.410;8.446;2023-07-13T10:39:02;2.85;;;2.50;;
9142;SDS011;54072;47.410;8.446;2023-07-13T10:41:32;3.65;;;2.30;;
9142;SDS011;54072;47.410;8.446;2023-07-13T10:44:01;2.75;;;2.13;;
9142;SDS011;54072;47.410;8.446;2023-07-13T10:46:29;3.92;;;2.05;;
9142;SDS011;54072;47.410;8.446;2023-07-13T10:48:57;4.35;;;2.40;;
9142;SDS011;54072;47.410;8.446;2023-07-13T10:51:26;3.50;;;2.03;;
9142;SDS011;54072;47.410;8.446;2023-07-13T10:54:11;3.20;;;2.20;;
9142;SDS011;54072;47.410;8.446;2023-07-13T10:56:44;3.75;;;2.50;;
9142;SDS011;54072;47.410;8.446;2023-07-13T10:59:16;2.70;;;2.13;;
9142;SDS011;54072;47.410;8.446;2023-07-13T11:01:49;4.78;;;2.40;;
9142;SDS011;54072;47.410;8.446;2023-07-13T11:04:17;3.55;;;2.45;;
9142;SDS011;54072;47.410;8.446;2023-07-13T11:06:47;2.42;;;2.22;;
9142;SDS011;54072;47.410;8.446;2023-07-13T11:09:33;2.50;;;2.20;;
9142;SDS011;54072;47.410;8.446;2023-07-13T11:12:06;3.13;;;2.53;;
9142;SDS011;54072;47.410;8.446;2023-07-13T11:14:35;2.67;;;2.47;;
9142;SDS011;54072;47.410;8.446;2023-07-13T11:19:51;2.38;;;2.20;;
9142;SDS011;54072;47.410;8.446;2023-07-13T11:22:23;2.45;;;2.25;;
9142;SDS011;54072;47.410;8.446;2023-07-13T11:25:00;2.63;;;2.13;;
9142;SDS011;54072;47.410;8.446;2023-07-13T11:27:34;4.22;;;2.30;;
9142;SDS011;54072;47.410;8.446;2023-07-13T11:32:52;3.13;;;2.50;;
9142;SDS011;54072;47.410;8.446;2023-07-13T11:35:29;2.90;;;2.53;;
9142;SDS011;54072;47.410;8.446;2023-07-13T11:37:56;3.42;;;2.35;;
9142;SDS011;54072;47.410;8.446;2023-07-13T11:40:25;2.58;;;2.38;;
9142;SDS011;54072;47.410;8.446;2023-07-13T11:42:58;2.60;;;2.40;;
9142;SDS011;54072;47.410;8.446;2023-07-13T11:45:27;3.83;;;2.70;;
9142;SDS011;54072;47.410;8.446;2023-07-13T11:48:01;2.70;;;2.50;;
9142;SDS011;54072;47.410;8.446;2023-07-13T11:50:28;2.50;;;2.30;;
9142;SDS011;54072;47.410;8.446;2023-07-13T11:52:57;2.83;;;2.10;;
9142;SDS011;54072;47.410;8.446;2023-07-13T11:55:27;2.60;;;2.40;;
9142;SDS011;54072;47.410;8.446;2023-07-13T11:57:56;5.80;;;2.45;;
9142;SDS011;54072;47.410;8.446;2023-07-13T12:00:27;2.47;;;2.28;;
9142;SDS011;54072;47.410;8.446;2023-07-13T12:02:57;3.03;;;2.30;;
9142;SDS011;54072;47.410;8.446;2023-07-13T12:05:26;2.28;;;2.08;;
9142;SDS011;54072;47.410;8.446;2023-07-13T12:07:55;4.05;;;2.50;;
9142;SDS011;54072;47.410;8.446;2023-07-13T12:10:23;3.30;;;2.30;;
9142;SDS011;54072;47.410;8.446;2023-07-13T12:12:54;3.50;;;2.17;;
9142;SDS011;54072;47.410;8.446;2023-07-13T12:15:22;2.67;;;2.47;;
9142;SDS011;54072;47.410;8.446;2023-07-13T12:17:51;2.75;;;2.28;;
9142;SDS011;54072;47.410;8.446;2023-07-13T12:20:20;2.95;;;2.60;;
9142;SDS011;54072;47.410;8.446;2023-07-13T12:22:48;2.72;;;2.30;;
9142;SDS011;54072;47.410;8.446;2023-07-13T12:25:16;1.98;;;1.88;;
9142;SDS011;54072;47.410;8.446;2023-07-13T12:27:46;2.60;;;2.40;;
9142;SDS011;54072;47.410;8.446;2023-07-13T12:30:23;3.90;;;2.22;;
9142;SDS011;54072;47.410;8.446;2023-07-13T12:32:55;5.60;;;2.38;;
9142;SDS011;54072;47.410;8.446;2023-07-13T12:35:24;2.33;;;2.13;;
9142;SDS011;54072;47.410;8.446;2023-07-13T12:37:52;2.30;;;2.00;;
9142;SDS011;54072;47.410;8.446;2023-07-13T12:40:20;2.40;;;2.20;;
9142;SDS011;54072;47.410;8.446;2023-07-13T12:42:48;2.70;;;2.50;;
9142;SDS011;54072;47.410;8.446;2023-07-13T12:45:17;2.50;;;2.30;;
9142;SDS011;54072;47.410;8.446;2023-07-13T12:47:49;8.05;;;2.30;;
9142;SDS011;54072;47.410;8.446;2023-07-13T12:50:18;5.90;;;2.60;;
9142;SDS011;54072;47.410;8.446;2023-07-13T12:52:50;2.35;;;2.10;;
9142;SDS011;54072;47.410;8.446;2023-07-13T12:55:18;3.05;;;1.98;;
9142;SDS011;54072;47.410;8.446;2023-07-13T12:57:49;3.25;;;2.20;;
9142;SDS011;54072;47.410;8.446;2023-07-13T13:00:22;2.83;;;2.33;;
9142;SDS011;54072;47.410;8.446;2023-07-13T13:02:52;3.60;;;2.58;;
9142;SDS011;54072;47.410;8.446;2023-07-13T13:05:25;3.65;;;2.20;;
9142;SDS011;54072;47.410;8.446;2023-07-13T13:07:52;2.92;;;2.20;;
9142;SDS011;54072;47.410;8.446;2023-07-13T13:10:20;6.65;;;2.35;;
9142;SDS011;54072;47.410;8.446;2023-07-13T13:12:48;2.63;;;2.17;;
9142;SDS011;54072;47.410;8.446;2023-07-13T13:15:15;2.72;;;2.22;;
9142;SDS011;54072;47.410;8.446;2023-07-13T13:17:46;2.53;;;2.20;;
9142;SDS011;54072;47.410;8.446;2023-07-13T13:20:16;6.10;;;2.35;;
9142;SDS011;54072;47.410;8.446;2023-07-13T13:22:44;3.90;;;2.20;;
9142;SDS011;54072;47.410;8.446;2023-07-13T13:25:11;4.47;;;2.30;;
9142;SDS011;54072;47.410;8.446;2023-07-13T13:27:39;1.90;;;1.80;;
9142;SDS011;54072;47.410;8.446;2023-07-13T13:30:10;2.08;;;1.98;;
9142;SDS011;54072;47.410;8.446;2023-07-13T13:32:42;2.30;;;2.10;;
9142;SDS011;54072;47.410;8.446;2023-07-13T13:35:12;2.45;;;1.98;;
9142;SDS011;54072;47.410;8.446;2023-07-13T13:37:41;2.97;;;2.10;;
9142;SDS011;54072;47.410;8.446;2023-07-13T13:40:13;2.65;;;2.10;;
9142;SDS011;54072;47.410;8.446;2023-07-13T13:42:41;2.65;;;2.22;;
9142;SDS011;54072;47.410;8.446;2023-07-13T13:45:09;2.75;;;2.25;;
9142;SDS011;54072;47.410;8.446;2023-07-13T13:47:38;2.65;;;2.10;;
9142;SDS011;54072;47.410;8.446;2023-07-13T13:50:11;2.40;;;2.20;;
9142;SDS011;54072;47.410;8.446;2023-07-13T13:52:38;2.33;;;2.13;;
9142;SDS011;54072;47.410;8.446;2023-07-13T13:55:12;2.33;;;2.13;;
9142;SDS011;54072;47.410;8.446;2023-07-13T13:57:40;2.63;;;2.38;;
9142;SDS011;54072;47.410;8.446;2023-07-13T14:00:08;3.53;;;2.42;;
9142;SDS011;54072;47.410;8.446;2023-07-13T14:02:37;3.20;;;2.17;;
9142;SDS011;54072;47.410;8.446;2023-07-13T14:05:05;3.00;;;2.10;;
9142;SDS011;54072;47.410;8.446;2023-07-13T14:07:34;3.22;;;2.10;;
9142;SDS011;54072;47.410;8.446;2023-07-13T14:10:01;2.10;;;2.00;;
9142;SDS011;54072;47.410;8.446;2023-07-13T14:12:30;2.80;;;2.00;;
9142;SDS011;54072;47.410;8.446;2023-07-13T14:14:58;2.20;;;2.00;;
9142;SDS011;54072;47.410;8.446;2023-07-13T14:17:26;1.90;;;1.80;;
9142;SDS011;54072;47.410;8.446;2023-07-13T14:19:54;6.57;;;2.35;;
9142;SDS011;54072;47.410;8.446;2023-07-13T14:22:23;2.15;;;1.80;;
9142;SDS011;54072;47.410;8.446;2023-07-13T14:24:52;2.10;;;1.90;;
9142;SDS011;54072;47.410;8.446;2023-07-13T14:27:19;5.43;;;2.10;;
9142;SDS011;54072;47.410;8.446;2023-07-13T14:29:48;2.80;;;2.10;;
9142;SDS011;54072;47.410;8.446;2023-07-13T14:32:16;4.07;;;2.10;;
9142;SDS011;54072;47.410;8.446;2023-07-13T14:34:43;2.80;;;2.30;;
9142;SDS011;54072;47.410;8.446;2023-07-13T14:37:12;3.47;;;2.20;;
9142;SDS011;54072;47.410;8.446;2023-07-13T14:39:40;3.00;;;2.35;;
9142;SDS011;54072;47.410;8.446;2023-07-13T14:42:09;3.97;;;2.03;;
9142;SDS011;54072;47.410;8.446;2023-07-13T14:44:37;3.15;;;2.13;;
9142;SDS011;54072;47.410;8.446;2023-07-13T14:47:07;3.08;;;2.05;;
9142;SDS011;54072;47.410;8.446;2023-07-13T14:49:36;3.13;;;1.88;;
9142;SDS011;54072;47.410;8.446;2023-07-13T14:52:10;1.90;;;1.80;;
9142;SDS011;54072;47.410;8.446;2023-07-13T14:54:38;2.08;;;1.88;;
9142;SDS011;54072;47.410;8.446;2023-07-13T14:57:08;1.70;;;1.60;;
9142;SDS011;54072;47.410;8.446;2023-07-13T14:59:36;3.20;;;1.88;;
9142;SDS011;54072;47.410;8.446;2023-07-13T15:02:09;1.85;;;1.75;;
9142;SDS011;54072;47.410;8.446;2023-07-13T15:04:39;1.88;;;1.65;;
9142;SDS011;54072;47.410;8.446;2023-07-13T15:07:07;3.08;;;1.67;;
9142;SDS011;54072;47.410;8.446;2023-07-13T15:09:36;1.80;;;1.70;;
9142;SDS011;54072;47.410;8.446;2023-07-13T15:12:04;1.90;;;1.70;;
9142;SDS011;54072;47.410;8.446;2023-07-13T15:14:32;4.22;;;1.88;;
9142;SDS011;54072;47.410;8.446;2023-07-13T15:17:00;3.13;;;1.70;;